TimeEST,TemperatureF,Dew PointF,Humidity,Sea Level PressureIn,VisibilityMPH,Wind Direction,Wind SpeedMPH,Gust SpeedMPH,PrecipitationIn,Events,Conditions,WindDirDegrees,DateUTC
12:15 AM,32.2,27.1,82,30.14,10.0,SW,3.5,-,N/A,,Clear,220,2014-01-02 05:15:00
12:35 AM,34.2,27.5,77,30.12,10.0,Calm,Calm,-,N/A,,Clear,0,2014-01-02 05:35:00
12:55 AM,35.1,28.2,76,30.11,10.0,SSW,3.5,-,N/A,,Clear,210,2014-01-02 05:55:00
1:15 AM,34.9,28.4,77,30.11,10.0,SW,3.5,-,N/A,,Clear,220,2014-01-02 06:15:00
1:35 AM,34.9,28.4,77,30.11,10.0,SW,3.5,-,N/A,,Clear,220,2014-01-02 06:35:00
1:55 AM,34.3,28.4,79,30.09,10.0,SW,4.6,-,N/A,,Clear,220,2014-01-02 06:55:00
2:15 AM,34.7,28.6,78,30.09,10.0,SW,4.6,-,N/A,,Clear,230,2014-01-02 07:15:00
2:35 AM,34.7,28.8,79,30.09,10.0,SW,4.6,-,N/A,,Clear,230,2014-01-02 07:35:00
2:55 AM,34.7,28.9,79,30.08,10.0,SW,4.6,-,N/A,,Clear,230,2014-01-02 07:55:00
3:15 AM,34.7,29.1,80,30.07,10.0,SW,3.5,-,N/A,,Clear,220,2014-01-02 08:15:00
3:35 AM,34.9,29.3,80,30.06,10.0,SW,3.5,-,N/A,,Clear,220,2014-01-02 08:35:00
3:55 AM,35.1,29.3,80,30.05,10.0,SW,4.6,-,N/A,,Clear,220,2014-01-02 08:55:00
4:15 AM,34.7,29.3,81,30.03,10.0,SW,3.5,-,N/A,,Clear,220,2014-01-02 09:15:00
4:35 AM,34.7,29.3,81,30.01,10.0,Calm,Calm,-,N/A,,Clear,0,2014-01-02 09:35:00
4:55 AM,34.2,29.1,82,30.01,10.0,SW,3.5,-,N/A,,Clear,220,2014-01-02 09:55:00
5:15 AM,34.2,29.1,82,30.00,10.0,Calm,Calm,-,N/A,,Clear,0,2014-01-02 10:15:00
5:35 AM,33.4,28.9,84,29.98,10.0,Calm,Calm,-,N/A,,Clear,0,2014-01-02 10:35:00
5:55 AM,33.8,29.3,84,29.99,10.0,Calm,Calm,-,N/A,,Clear,0,2014-01-02 10:55:00
6:15 AM,33.3,29.1,85,29.97,10.0,SSW,3.5,-,N/A,,Clear,200,2014-01-02 11:15:00
6:35 AM,33.1,29.1,85,29.98,10.0,Calm,Calm,-,N/A,,Clear,0,2014-01-02 11:35:00
6:55 AM,32.0,29.1,89,29.96,10.0,Calm,Calm,-,N/A,,Clear,0,2014-01-02 11:55:00
7:15 AM,34.7,29.3,81,29.96,10.0,Calm,Calm,-,N/A,,Clear,0,2014-01-02 12:15:00
7:35 AM,34.2,29.1,82,29.96,10.0,Calm,Calm,-,N/A,,Clear,0,2014-01-02 12:35:00
7:55 AM,33.8,29.3,84,29.95,10.0,Calm,Calm,-,N/A,,Clear,0,2014-01-02 12:55:00
8:15 AM,34.3,29.3,82,29.94,10.0,Calm,Calm,-,N/A,,Clear,0,2014-01-02 13:15:00
8:35 AM,34.2,29.3,82,29.94,10.0,Calm,Calm,-,N/A,,Clear,0,2014-01-02 13:35:00
8:55 AM,34.3,29.3,82,29.94,10.0,Calm,Calm,-,N/A,,Clear,0,2014-01-02 13:55:00
9:15 AM,35.4,30.0,81,29.93,10.0,Calm,Calm,-,N/A,,Scattered Clouds,0,2014-01-02 14:15:00
9:35 AM,36.5,30.4,78,29.92,10.0,SSW,3.5,-,N/A,,Overcast,210,2014-01-02 14:35:00
9:55 AM,37.4,31.3,79,29.91,10.0,SSW,3.5,-,N/A,,Overcast,210,2014-01-02 14:55:00
10:15 AM,38.5,32.0,78,29.90,10.0,SSW,3.5,-,N/A,,Overcast,210,2014-01-02 15:15:00
10:35 AM,39.2,32.0,75,29.89,10.0,Calm,Calm,-,N/A,,Overcast,0,2014-01-02 15:35:00
10:55 AM,39.7,32.9,77,29.88,10.0,Calm,Calm,-,N/A,,Overcast,0,2014-01-02 15:55:00
11:15 AM,40.6,33.6,76,29.86,10.0,Calm,Calm,-,N/A,,Overcast,0,2014-01-02 16:15:00
11:35 AM,41.0,34.0,76,29.83,10.0,Calm,Calm,-,N/A,,Light Drizzle,0,2014-01-02 16:35:00
11:55 AM,41.9,35.1,77,29.82,10.0,WSW,3.5,-,N/A,,Overcast,240,2014-01-02 16:55:00
12:15 PM,42.3,35.8,78,29.81,7.0,WSW,4.6,-,N/A,,Light Drizzle,240,2014-01-02 17:15:00
12:35 PM,42.3,36.7,81,29.78,5.0,WSW,3.5,-,N/A,Rain,Rain,240,2014-01-02 17:35:00
12:55 PM,41.0,37.9,89,29.78,2.0,SW,6.9,-,N/A,Rain,Light Rain,230,2014-01-02 17:55:00
1:15 PM,40.3,38.5,93,29.76,2.0,WSW,6.9,-,N/A,Rain,Rain,250,2014-01-02 18:15:00
1:35 PM,40.3,39.0,95,29.75,1.8,WSW,4.6,-,0.01,Rain,Light Rain,240,2014-01-02 18:35:00
1:55 PM,40.1,39.0,96,29.72,2.0,SW,4.6,-,0.01,Rain,Rain,230,2014-01-02 18:55:00
2:15 PM,40.3,39.4,97,29.72,2.0,SW,4.6,-,N/A,Rain,Light Rain,230,2014-01-02 19:15:00
2:35 PM,40.1,39.2,97,29.71,2.5,SW,3.5,-,N/A,Rain,Heavy Rain,220,2014-01-02 19:35:00
2:55 PM,40.3,39.6,97,29.69,2.0,SSW,3.5,-,N/A,,Heavy Drizzle,200,2014-01-02 19:55:00
3:15 PM,40.6,40.1,98,29.68,2.0,Calm,Calm,-,N/A,Rain,Heavy Rain,0,2014-01-02 20:15:00
3:35 PM,41.0,40.3,97,29.68,1.8,SSW,3.5,-,0.01,Rain,Heavy Rain,210,2014-01-02 20:35:00
3:55 PM,41.0,40.5,98,29.68,2.0,SW,3.5,-,0.03,Rain,Rain,220,2014-01-02 20:55:00
4:15 PM,41.0,40.5,98,29.67,2.0,SSW,3.5,-,N/A,Rain,Rain,210,2014-01-02 21:15:00
4:35 PM,41.0,40.6,99,29.64,1.5,Calm,Calm,-,0.04,Rain,Light Rain,0,2014-01-02 21:35:00
4:55 PM,41.0,40.6,99,29.65,3.0,Calm,Calm,-,0.06,Rain,Rain,0,2014-01-02 21:55:00
5:15 PM,41.0,40.5,98,29.67,4.0,West,6.9,-,0.02,Rain,Rain,280,2014-01-02 22:15:00
5:35 PM,40.6,40.3,99,29.67,5.0,West,3.5,-,0.05,Rain,Rain,270,2014-01-02 22:35:00
5:55 PM,40.3,40.1,99,29.66,7.0,WSW,4.6,-,0.07,Rain,Light Rain,250,2014-01-02 22:55:00
6:15 PM,40.1,39.7,99,29.66,7.0,WSW,3.5,-,0.02,Rain,Rain,250,2014-01-02 23:15:00
6:35 PM,40.1,39.6,98,29.65,7.0,SW,3.5,-,0.03,Rain,Rain,230,2014-01-02 23:35:00
6:55 PM,40.1,39.6,98,29.63,5.0,Calm,Calm,-,0.04,Rain,Rain,0,2014-01-02 23:55:00
7:15 PM,39.7,39.4,99,29.64,7.0,WSW,4.6,-,N/A,Rain,Light Rain,250,2014-01-03 00:15:00
7:35 PM,39.6,39.2,99,29.63,5.0,Calm,Calm,-,N/A,,Overcast,0,2014-01-03 00:35:00
7:55 PM,39.6,39.2,99,29.63,7.0,Calm,Calm,-,N/A,,Overcast,0,2014-01-03 00:55:00
8:15 PM,39.4,39.2,99,29.63,7.0,Calm,Calm,-,N/A,,Overcast,0,2014-01-03 01:15:00
8:35 PM,39.4,39.2,99,29.63,7.0,Calm,Calm,-,N/A,,Overcast,0,2014-01-03 01:35:00
8:55 PM,39.7,39.4,99,29.64,10.0,WNW,5.8,-,N/A,,Light Drizzle,300,2014-01-03 01:55:00
9:15 PM,40.1,39.2,97,29.64,10.0,WNW,4.6,-,N/A,,Overcast,290,2014-01-03 02:15:00
9:35 PM,40.1,39.0,96,29.65,10.0,WNW,4.6,-,N/A,,Overcast,290,2014-01-03 02:35:00
9:55 PM,39.7,38.5,95,29.66,10.0,WNW,3.5,-,N/A,,Overcast,290,2014-01-03 02:55:00
10:15 PM,38.7,37.4,95,29.67,10.0,WNW,3.5,-,N/A,,Mostly Cloudy,300,2014-01-03 03:15:00
10:35 PM,38.3,35.8,91,29.68,10.0,WNW,4.6,-,N/A,,Clear,300,2014-01-03 03:35:00
10:55 PM,37.6,32.5,82,29.69,10.0,WNW,4.6,-,N/A,,Clear,300,2014-01-03 03:55:00
11:15 PM,37.2,30.7,77,29.69,10.0,WNW,5.8,-,N/A,,Scattered Clouds,300,2014-01-03 04:15:00
11:35 PM,37.4,29.8,74,29.71,10.0,NW,5.8,-,N/A,,Mostly Cloudy,310,2014-01-03 04:35:00
11:55 PM,37.0,27.5,68,29.72,10.0,NW,6.9,16.1,N/A,,Mostly Cloudy,320,2014-01-03 04:55:00